createdAt,value
2019-04-06T00:00:47.986Z,98076.84
2019-04-06T00:03:18.934Z,98084.70
2019-04-06T00:05:49.615Z,98083.67
2019-04-06T00:08:20.692Z,98083.34
2019-04-06T00:10:51.701Z,98081.68
2019-04-06T00:13:22.711Z,98084.96
2019-04-06T00:15:53.524Z,98087.70
2019-04-06T00:18:24.822Z,98083.51
2019-04-06T00:20:55.668Z,98092.23
2019-04-06T00:23:26.545Z,98090.12
2019-04-06T00:25:57.448Z,98085.09
2019-04-06T00:28:28.313Z,98083.58
2019-04-06T00:31:12.657Z,98085.21
2019-04-06T00:33:43.687Z,98085.21
2019-04-06T00:36:14.593Z,98082.55
2019-04-06T00:38:45.877Z,98084.47
2019-04-06T00:41:16.776Z,98088.25
2019-04-06T00:43:47.830Z,98075.89
2019-04-06T00:46:18.680Z,98074.86
2019-04-06T00:48:49.677Z,98074.45
2019-04-06T00:51:20.454Z,98075.98
2019-04-06T00:53:51.429Z,98071.87
2019-04-06T00:56:22.329Z,98076.72
2019-04-06T00:58:53.214Z,98076.11
2019-04-06T01:01:23.982Z,98073.28
2019-04-06T01:03:54.988Z,98064.18
2019-04-06T01:06:25.885Z,98060.81
2019-04-06T01:08:56.757Z,98055.88
2019-04-06T01:11:27.647Z,98056.08
2019-04-06T01:13:58.947Z,98055.04
2019-04-06T01:16:29.936Z,98052.26
2019-04-06T01:19:00.825Z,98063.94
2019-04-06T01:21:31.594Z,98062.81
2019-04-06T01:24:02.662Z,98069.38
2019-04-06T01:26:33.624Z,98063.94
2019-04-06T01:29:04.698Z,98067.51
2019-04-06T01:31:35.552Z,98058.52
2019-04-06T01:34:06.542Z,98063.84
2019-04-06T01:36:37.425Z,98069.18
2019-04-06T01:39:08.418Z,98060.59
2019-04-06T01:41:39.297Z,98063.09
2019-04-06T01:44:10.318Z,98060.44
2019-04-06T01:46:41.121Z,98052.13
2019-04-06T01:49:12.076Z,98045.75
2019-04-06T01:51:43.117Z,98052.47
2019-04-06T01:54:13.960Z,98044.07
2019-04-06T01:56:44.749Z,98044.38
2019-04-06T01:59:16.105Z,98039.10
2019-04-06T02:02:09.183Z,98044.22
2019-04-06T02:04:40.222Z,98050.66
2019-04-06T02:07:11.032Z,98046.19
2019-04-06T02:09:42.017Z,98048.14
2019-04-06T02:12:12.892Z,98044.39
2019-04-06T02:14:43.888Z,98053.38
2019-04-06T02:17:14.866Z,98047.05
2019-04-06T02:19:45.826Z,98046.64
2019-04-06T02:22:16.720Z,98048.63
2019-04-06T02:24:47.566Z,98049.04
2019-04-06T02:27:18.585Z,98047.30
2019-04-06T02:30:09.571Z,98041.77
2019-04-06T02:32:52.156Z,98047.25
2019-04-06T02:35:41.036Z,98046.31
2019-04-06T02:38:30.936Z,98043.75
2019-04-06T02:41:23.545Z,98050.94
2019-04-06T02:43:54.555Z,98043.26
2019-04-06T02:46:25.466Z,98040.33
2019-04-06T02:48:56.247Z,98048.27
2019-04-06T02:51:27.554Z,98043.59
2019-04-06T02:53:58.603Z,98042.77
2019-04-06T02:56:44.272Z,98046.11
2019-04-06T02:59:02.348Z,98041.08
2019-04-06T03:01:33.376Z,98041.28
2019-04-06T03:04:04.336Z,98046.27
2019-04-06T03:06:35.342Z,98049.45
2019-04-06T03:09:06.907Z,98047.14
2019-04-06T03:11:37.870Z,98048.41
2019-04-06T03:14:08.762Z,98049.73
2019-04-06T03:16:39.787Z,98053.59
2019-04-06T03:19:12.141Z,98055.05
2019-04-06T03:21:43.088Z,98047.07
2019-04-06T03:24:13.953Z,98038.14
2019-04-06T03:26:59.285Z,98036.95
2019-04-06T03:29:17.361Z,98035.39
2019-04-06T03:31:48.308Z,98031.20
2019-04-06T03:34:21.108Z,98030.36
2019-04-06T03:36:51.936Z,98033.38
2019-04-06T03:39:22.708Z,98034.11
2019-04-06T03:41:53.976Z,98028.05
2019-04-06T03:44:24.807Z,98038.97
2019-04-06T03:46:55.746Z,98035.66
2019-04-06T03:49:26.632Z,98036.98
2019-04-06T03:51:57.508Z,98034.33
2019-04-06T03:54:28.438Z,98035.09
2019-04-06T03:57:13.141Z,98040.80
2019-04-06T03:59:31.978Z,98044.48
2019-04-06T04:02:03.052Z,98047.44
2019-04-06T04:04:34.014Z,98050.33
2019-04-06T04:07:04.892Z,98043.32
2019-04-06T04:09:35.834Z,98045.70
2019-04-06T04:12:06.987Z,98042.72
2019-04-06T04:14:38.398Z,98042.42
2019-04-06T04:17:10.237Z,98039.23
2019-04-06T04:19:41.363Z,98042.29
2019-04-06T04:22:12.434Z,98039.64
2019-04-06T04:24:43.290Z,98045.44
2019-04-06T04:27:27.379Z,98044.91
2019-04-06T04:29:46.894Z,98043.89
2019-04-06T04:32:17.857Z,98038.91
2019-04-06T04:34:48.799Z,98032.70
2019-04-06T04:37:19.845Z,98028.78
2019-04-06T04:39:50.809Z,98032.02
2019-04-06T04:42:21.777Z,98036.19
2019-04-06T04:44:52.561Z,98035.26
2019-04-06T04:47:23.767Z,98041.40
2019-04-06T04:49:54.524Z,98046.44
2019-04-06T04:52:25.498Z,98043.05
2019-04-06T04:54:56.293Z,98046.87
2019-04-06T04:57:39.078Z,98044.91
2019-04-06T04:59:59.821Z,98050.16
2019-04-06T05:02:30.907Z,98051.52
2019-04-06T05:05:01.822Z,98049.36
2019-04-06T05:07:32.698Z,98049.50
2019-04-06T05:10:03.582Z,98052.34
2019-04-06T05:12:34.580Z,98047.23
2019-04-06T05:15:09.019Z,98051.55
2019-04-06T05:17:40.108Z,98058.16
2019-04-06T05:20:11.619Z,98058.55
2019-04-06T05:22:42.668Z,98060.25
2019-04-06T05:25:13.721Z,98052.77
2019-04-06T05:27:52.051Z,98053.63
2019-04-06T05:30:17.562Z,98055.52
2019-04-06T05:32:48.462Z,98052.05
2019-04-06T05:35:19.402Z,98053.23
2019-04-06T05:37:50.400Z,98052.16
2019-04-06T05:40:21.394Z,98054.48
2019-04-06T05:42:52.285Z,98057.67
2019-04-06T05:45:23.154Z,98055.22
2019-04-06T05:47:53.991Z,98060.17
2019-04-06T05:50:24.880Z,98058.36
2019-04-06T05:52:55.832Z,98061.58
2019-04-06T05:55:26.600Z,98052.70
2019-04-06T05:58:03.420Z,98056.61
2019-04-06T06:00:30.216Z,98061.85
2019-04-06T06:03:01.181Z,98064.77
2019-04-06T06:05:32.500Z,98064.51
2019-04-06T06:08:03.516Z,98059.61
2019-04-06T06:10:34.764Z,98061.05
2019-04-06T06:13:05.703Z,98065.78
2019-04-06T06:15:36.484Z,98059.23
2019-04-06T06:18:07.543Z,98058.75
2019-04-06T06:20:39.123Z,98062.52
2019-04-06T06:23:10.196Z,98066.83
2019-04-06T06:25:41.162Z,98064.98
2019-04-06T06:28:15.262Z,98066.32
2019-04-06T06:30:44.689Z,98067.25
2019-04-06T06:33:15.514Z,98071.01
2019-04-06T06:35:46.897Z,98066.08
2019-04-06T06:38:17.809Z,98063.73
2019-04-06T06:40:48.634Z,98056.06
2019-04-06T06:43:19.707Z,98060.05
2019-04-06T06:45:50.518Z,98053.86
2019-04-06T06:48:21.458Z,98055.27
2019-04-06T06:50:52.444Z,98055.31
2019-04-06T06:53:23.475Z,98055.84
2019-04-06T06:55:54.562Z,98053.32
2019-04-06T06:58:26.265Z,98043.66
2019-04-06T07:00:57.440Z,98040.86
2019-04-06T07:03:28.721Z,98042.98
2019-04-06T07:05:59.524Z,98041.43
2019-04-06T07:08:30.821Z,98047.36
2019-04-06T07:11:01.741Z,98043.17
2019-04-06T07:13:32.629Z,98042.17
2019-04-06T07:16:03.813Z,98037.63
2019-04-06T07:18:34.868Z,98041.39
2019-04-06T07:21:05.942Z,98036.45
2019-04-06T07:23:36.829Z,98039.03
2019-04-06T07:26:07.947Z,98036.19
2019-04-06T07:28:39.439Z,98033.29
2019-04-06T07:31:10.369Z,98027.00
2019-04-06T07:33:41.208Z,98034.67
2019-04-06T07:36:12.364Z,98037.84
2019-04-06T07:38:43.194Z,98030.52
2019-04-06T07:41:14.176Z,98036.38
2019-04-06T07:43:45.124Z,98034.82
2019-04-06T07:46:16.010Z,98034.00
2019-04-06T07:48:46.846Z,98036.11
2019-04-06T07:51:18.565Z,98028.43
2019-04-06T07:53:49.340Z,98037.11
2019-04-06T07:56:20.702Z,98038.99
2019-04-06T07:58:51.937Z,98031.98
2019-04-06T08:01:22.880Z,98033.25
2019-04-06T08:03:53.806Z,98034.00
2019-04-06T08:06:24.902Z,98040.70
2019-04-06T08:08:55.890Z,98041.41
2019-04-06T08:11:26.913Z,98030.90
2019-04-06T08:13:57.935Z,98029.80
2019-04-06T08:16:28.712Z,98026.92
2019-04-06T08:18:59.725Z,98029.40
2019-04-06T08:21:31.448Z,98036.48
2019-04-06T08:24:02.230Z,98033.20
2019-04-06T08:26:33.064Z,98037.11
2019-04-06T08:29:04.025Z,98033.44
2019-04-06T08:31:34.958Z,98037.06
2019-04-06T08:34:06.049Z,98035.25
2019-04-06T08:36:37.067Z,98033.46
2019-04-06T08:39:09.245Z,98027.30
2019-04-06T08:41:40.126Z,98029.03
2019-04-06T08:44:11.226Z,98026.09
2019-04-06T08:46:42.240Z,98027.00
2019-04-06T08:49:13.169Z,98020.41
2019-04-06T08:51:44.234Z,98020.48
2019-04-06T08:54:15.031Z,98015.43
2019-04-06T08:56:45.961Z,98012.29
2019-04-06T08:59:17.093Z,98009.30
2019-04-06T09:01:48.056Z,98007.95
2019-04-06T09:04:18.899Z,98003.11
2019-04-06T09:06:49.860Z,98001.61
2019-04-06T09:09:20.809Z,97996.06
2019-04-06T09:11:51.591Z,97999.00
2019-04-06T09:14:22.468Z,98000.62
2019-04-06T09:16:53.374Z,97997.41
2019-04-06T09:19:24.533Z,97992.02
2019-04-06T09:21:56.135Z,97981.80
2019-04-06T09:24:26.970Z,97985.38
2019-04-06T09:26:57.863Z,97993.33
2019-04-06T09:29:28.834Z,97983.92
2019-04-06T09:31:59.795Z,97989.80
2019-04-06T09:34:31.325Z,97983.31
2019-04-06T09:37:02.312Z,97981.34
2019-04-06T09:39:33.305Z,97978.36
2019-04-06T09:42:04.206Z,97975.31
2019-04-06T09:44:47.960Z,97970.34
2019-04-06T09:47:41.274Z,97970.72
2019-04-06T09:53:46.154Z,97971.44
2019-04-06T09:56:30.710Z,97970.04
2019-04-06T09:59:17.832Z,97977.75
2019-04-06T10:02:20.456Z,97979.03
2019-04-06T10:05:23.348Z,97975.33
2019-04-06T10:08:11.277Z,97980.38
2019-04-06T10:11:01.350Z,97976.88
2019-04-06T10:13:49.874Z,97969.61
2019-04-06T10:16:32.897Z,97974.89
2019-04-06T10:19:30.067Z,97978.92
2019-04-06T10:22:39.564Z,97982.75
2019-04-06T10:25:33.499Z,97981.00
2019-04-06T10:28:31.545Z,97975.05
2019-04-06T10:31:30.580Z,97973.37
2019-04-06T10:34:25.236Z,97973.50
2019-04-06T10:37:21.407Z,97971.09
2019-04-06T10:39:58.578Z,97971.45
2019-04-06T10:42:48.333Z,97968.54
2019-04-06T10:45:35.860Z,97964.70
2019-04-06T10:48:13.571Z,97959.14
2019-04-06T10:51:03.901Z,97956.42
2019-04-06T10:54:12.163Z,97955.67
2019-04-06T10:56:53.444Z,97960.16
2019-04-06T10:59:42.025Z,97953.45
2019-04-06T11:02:30.391Z,97951.64
2019-04-06T11:05:32.147Z,97948.41
2019-04-06T11:08:41.236Z,97959.84
2019-04-06T11:11:28.666Z,97954.44
2019-04-06T11:14:07.040Z,97943.68
2019-04-06T11:17:00.838Z,97945.78
2019-04-06T11:19:49.361Z,97935.00
2019-04-06T11:22:38.773Z,97926.14
2019-04-06T11:25:24.765Z,97924.56
2019-04-06T11:28:21.191Z,97917.30
2019-04-06T11:31:11.086Z,97919.99
2019-04-06T11:33:59.642Z,97914.88
2019-04-06T11:36:52.080Z,97908.89
2019-04-06T11:39:35.100Z,97902.16
2019-04-06T11:42:27.953Z,97906.53
2019-04-06T11:45:36.375Z,97906.27
2019-04-06T11:48:30.656Z,97905.98
2019-04-06T11:51:29.553Z,97890.88
2019-04-06T11:54:32.310Z,97898.66
2019-04-06T11:57:28.535Z,97903.10
2019-04-06T12:00:26.368Z,97903.09
2019-04-06T12:03:13.242Z,97911.23
2019-04-06T12:06:08.917Z,97905.53
2019-04-06T12:09:08.161Z,97907.19
2019-04-06T12:11:59.691Z,97900.66
2019-04-06T12:14:55.717Z,97893.90
2019-04-06T12:17:44.271Z,97896.84
2019-04-06T12:20:26.111Z,97885.47
2019-04-06T12:23:16.459Z,97893.34
2019-04-06T12:26:12.660Z,97897.09
2019-04-06T12:29:01.342Z,97895.41
2019-04-06T12:31:43.751Z,97905.12
2019-04-06T12:34:33.815Z,97897.05
2019-04-06T12:37:33.149Z,97898.67
2019-04-06T12:40:13.193Z,97899.23
2019-04-06T12:43:09.529Z,97896.11
2019-04-06T12:45:58.161Z,97892.36
2019-04-06T12:48:47.042Z,97894.39
2019-04-06T12:51:28.957Z,97891.73
2019-04-06T12:54:18.729Z,97890.95
2019-04-06T12:57:03.070Z,97892.61
2019-04-06T12:59:56.945Z,97894.46
2019-04-06T13:02:46.828Z,97888.50
2019-04-06T13:06:01.556Z,97890.86
2019-04-06T13:09:09.500Z,97894.63
2019-04-06T13:12:02.260Z,97886.89
2019-04-06T13:14:53.158Z,97887.81
2019-04-06T13:17:33.712Z,97889.23
2019-04-06T13:20:26.371Z,97883.19
2019-04-06T13:23:19.607Z,97867.74
2019-04-06T13:26:01.739Z,97871.11
2019-04-06T13:28:43.012Z,97870.84
2019-04-06T13:31:26.341Z,97866.80
2019-04-06T13:34:19.435Z,97860.01
2019-04-06T13:36:56.686Z,97853.88
2019-04-06T13:39:43.870Z,97863.00
2019-04-06T13:42:32.460Z,97864.42
2019-04-06T13:45:28.485Z,97866.64
2019-04-06T13:48:21.320Z,97865.22
2019-04-06T13:51:17.158Z,97864.13
2019-04-06T13:54:22.328Z,97868.82
2019-04-06T13:57:07.779Z,97868.22
2019-04-06T13:59:57.882Z,97864.30
2019-04-06T14:02:53.042Z,97866.33
2019-04-06T14:05:51.699Z,97855.98
2019-04-06T14:08:42.779Z,97861.03
2019-04-06T14:11:31.330Z,97853.77
2019-04-06T14:14:39.435Z,97843.25
2019-04-06T14:17:27.374Z,97847.31
2019-04-06T14:20:11.225Z,97842.65
2019-04-06T14:22:59.333Z,97840.25
2019-04-06T14:25:55.697Z,97838.38
2019-04-06T14:28:54.242Z,97832.84
2019-04-06T14:31:34.296Z,97829.27
2019-04-06T14:34:23.087Z,97820.53
2019-04-06T14:37:11.535Z,97816.27
2019-04-06T14:40:10.632Z,97815.41
2019-04-06T14:43:00.415Z,97813.41
2019-04-06T14:46:00.985Z,97809.19
2019-04-06T14:48:53.596Z,97803.65
2019-04-06T14:51:55.970Z,97792.15
2019-04-06T14:54:51.575Z,97801.09
2019-04-06T14:57:49.042Z,97802.13
2019-04-06T15:00:39.853Z,97808.30
2019-04-06T15:03:21.814Z,97810.06
2019-04-06T15:06:01.509Z,97812.07
2019-04-06T15:09:01.070Z,97808.66
2019-04-06T15:12:04.897Z,97815.23
2019-04-06T15:14:57.662Z,97812.55
2019-04-06T15:17:56.886Z,97817.27
2019-04-06T15:20:41.566Z,97807.59
2019-04-06T15:23:36.729Z,97807.18
2019-04-06T15:26:14.876Z,97814.42
2019-04-06T15:28:56.492Z,97813.01
2019-04-06T15:31:51.265Z,97814.90
2019-04-06T15:34:31.687Z,97807.59
2019-04-06T15:37:17.741Z,97806.56
2019-04-06T15:39:58.621Z,97804.38
2019-04-06T15:42:44.039Z,97805.73
2019-04-06T15:45:40.238Z,97801.41
2019-04-06T15:48:37.957Z,97806.03
2019-04-06T15:51:43.811Z,97799.84
2019-04-06T15:54:30.903Z,97793.91
2019-04-06T15:57:09.901Z,97790.48
2019-04-06T16:00:12.853Z,97788.89
2019-04-06T16:03:08.999Z,97790.13
2019-04-06T16:05:59.443Z,97780.02
2019-04-06T16:08:52.984Z,97788.34
2019-04-06T16:11:55.082Z,97785.77
2019-04-06T16:14:47.701Z,97780.83
2019-04-06T16:17:40.478Z,97785.64
2019-04-06T16:20:21.145Z,97780.89
2019-04-06T16:23:02.430Z,97776.37
2019-04-06T16:25:45.496Z,97777.36
2019-04-06T16:28:38.740Z,97773.91
2019-04-06T16:31:19.231Z,97777.41
2019-04-06T16:34:07.621Z,97772.56
2019-04-06T16:37:08.259Z,97777.16
2019-04-06T16:39:56.398Z,97774.78
2019-04-06T16:42:49.604Z,97780.69
2019-04-06T16:45:45.452Z,97790.42
2019-04-06T16:48:38.239Z,97790.95
2019-04-06T16:51:30.433Z,97795.02
2019-04-06T16:54:20.973Z,97798.80
2019-04-06T16:56:58.646Z,97799.13
2019-04-06T16:59:51.626Z,97795.84
2019-04-06T17:02:36.498Z,97793.78
2019-04-06T17:05:38.860Z,97799.20
2019-04-06T17:08:17.964Z,97800.05
2019-04-06T17:11:04.608Z,97800.88
2019-04-06T17:13:44.035Z,97806.30
2019-04-06T17:16:34.123Z,97815.23
2019-04-06T17:19:36.091Z,97818.55
2019-04-06T17:22:24.539Z,97820.25
2019-04-06T17:25:07.971Z,97830.05
2019-04-06T17:27:53.450Z,97824.39
2019-04-06T17:30:32.992Z,97833.06
2019-04-06T17:33:12.735Z,97840.06
2019-04-06T17:36:05.796Z,97849.22
2019-04-06T17:38:54.522Z,97850.53
2019-04-06T17:41:48.743Z,97855.11
2019-04-06T17:44:37.088Z,97853.72
2019-04-06T17:47:19.222Z,97853.16
2019-04-06T17:49:59.539Z,97857.42
2019-04-06T17:52:48.334Z,97863.85
2019-04-06T17:55:41.435Z,97856.48
2019-04-06T17:58:34.848Z,97859.42
2019-04-06T18:01:15.008Z,97868.20
2019-04-06T18:04:04.347Z,97870.58
2019-04-06T18:06:58.049Z,97875.16
2019-04-06T18:09:42.782Z,97882.08
2019-04-06T18:12:38.274Z,97884.38
2019-04-06T18:15:09.861Z,97883.03
2019-04-06T18:17:40.784Z,97884.06
2019-04-06T18:20:11.871Z,97879.19
2019-04-06T18:22:42.663Z,97872.75
2019-04-06T18:25:13.837Z,97864.75
2019-04-06T18:27:44.660Z,97863.41
2019-04-06T18:30:16.048Z,97858.19
2019-04-06T18:33:00.711Z,97859.36
2019-04-06T18:35:25.610Z,97861.17
2019-04-06T18:38:16.646Z,97862.41
2019-04-06T18:40:48.666Z,97872.73
2019-04-06T18:43:19.608Z,97876.73
2019-04-06T18:45:50.593Z,97875.88
2019-04-06T18:48:21.357Z,97878.57
2019-04-06T18:50:52.223Z,97878.93
2019-04-06T18:53:23.001Z,97876.88
2019-04-06T18:55:56.258Z,97882.91
2019-04-06T18:58:28.180Z,97885.25
2019-04-06T19:00:59.565Z,97890.90
2019-04-06T19:03:32.234Z,97894.77
2019-04-06T19:06:03.262Z,97892.28
2019-04-06T19:08:34.325Z,97889.46
2019-04-06T19:11:05.759Z,97893.17
2019-04-06T19:13:36.656Z,97890.75
2019-04-06T19:16:09.714Z,97897.98
2019-04-06T19:18:40.482Z,97892.88
2019-04-06T19:21:12.095Z,97893.97
2019-04-06T19:23:43.467Z,97890.09
2019-04-06T19:26:14.365Z,97894.22
2019-04-06T19:28:45.148Z,97893.23
2019-04-06T19:31:16.161Z,97890.08
2019-04-06T19:33:47.454Z,97889.36
2019-04-06T19:36:18.344Z,97899.09
2019-04-06T19:38:49.641Z,97895.84
2019-04-06T19:41:20.527Z,97892.83
2019-04-06T19:43:51.465Z,97901.16
2019-04-06T19:46:22.558Z,97899.70
2019-04-06T19:48:53.639Z,97897.06
2019-04-06T19:51:24.861Z,97905.58
2019-04-06T19:53:56.648Z,97904.94
2019-04-06T19:56:27.952Z,97899.48
2019-04-06T19:58:59.017Z,97895.83
2019-04-06T20:01:29.929Z,97892.59
2019-04-06T20:04:00.969Z,97889.66
2019-04-06T20:06:31.903Z,97894.32
2019-04-06T20:09:06.088Z,97896.73
2019-04-06T20:11:37.917Z,97897.55
2019-04-06T20:14:08.804Z,97897.55
2019-04-06T20:16:39.691Z,97895.25
2019-04-06T20:19:10.949Z,97891.80
2019-04-06T20:21:42.027Z,97893.22
2019-04-06T20:24:12.836Z,97893.66
2019-04-06T20:26:43.848Z,97893.25
2019-04-06T20:29:14.820Z,97897.96
2019-04-06T20:31:46.216Z,97900.02
2019-04-06T20:34:17.567Z,97893.11
2019-04-06T20:36:48.523Z,97893.44
2019-04-06T20:39:19.391Z,97896.95
2019-04-06T20:41:50.165Z,97900.16
2019-04-06T20:44:21.101Z,97897.00
2019-04-06T20:46:52.357Z,97900.36
2019-04-06T20:49:23.184Z,97901.89
2019-04-06T20:51:54.345Z,97898.98
2019-04-06T20:54:26.158Z,97896.59
2019-04-06T20:56:58.390Z,97902.72
2019-04-06T20:59:29.645Z,97906.98
2019-04-06T21:02:03.316Z,97906.44
2019-04-06T21:04:34.286Z,97902.47
2019-04-06T21:07:05.501Z,97899.80
2019-04-06T21:09:36.765Z,97907.59
2019-04-06T21:12:07.812Z,97904.73
2019-04-06T21:14:38.617Z,97907.66
2019-04-06T21:17:09.417Z,97907.08
2019-04-06T21:19:40.536Z,97906.16
2019-04-06T21:22:12.459Z,97907.17
2019-04-06T21:24:43.968Z,97919.83
2019-04-06T21:27:15.031Z,97922.69
2019-04-06T21:29:46.152Z,97921.34
2019-04-06T21:32:17.206Z,97916.68
2019-04-06T21:34:48.406Z,97916.07
2019-04-06T21:37:20.021Z,97918.56
2019-04-06T21:39:50.901Z,97922.83
2019-04-06T21:42:21.971Z,97929.78
2019-04-06T21:44:53.413Z,97930.27
2019-04-06T21:47:24.457Z,97931.06
2019-04-06T21:49:55.552Z,97929.20
2019-04-06T21:52:26.413Z,97927.52
2019-04-06T21:54:57.777Z,97929.69
2019-04-06T21:57:28.664Z,97938.49
2019-04-06T21:59:59.537Z,97935.56
2019-04-06T22:02:30.825Z,97935.30
2019-04-06T22:05:02.998Z,97940.59
2019-04-06T22:07:47.233Z,97943.41
2019-04-06T22:10:07.760Z,97944.57
2019-04-06T22:12:38.766Z,97940.76
2019-04-06T22:15:13.497Z,97936.92
2019-04-06T22:17:45.328Z,97950.28
2019-04-06T22:20:16.321Z,97943.27
2019-04-06T22:22:47.334Z,97937.16
2019-04-06T22:25:18.809Z,97940.31
2019-04-06T22:27:50.243Z,97935.19
2019-04-06T22:30:21.406Z,97930.94
2019-04-06T22:32:52.412Z,97939.14
2019-04-06T22:35:23.307Z,97933.19
2019-04-06T22:37:55.651Z,97926.38
2019-04-06T22:40:27.209Z,97933.01
2019-04-06T22:42:58.846Z,97934.42
2019-04-06T22:45:31.021Z,97931.16
2019-04-06T22:48:03.543Z,97936.40
2019-04-06T22:50:34.825Z,97931.59
2019-04-06T22:53:06.756Z,97930.14
2019-04-06T22:55:38.040Z,97931.95
2019-04-06T22:58:09.171Z,97937.59
2019-04-06T23:00:48.601Z,97933.17
2019-04-06T23:03:37.002Z,97931.91
2019-04-06T23:06:11.526Z,97933.41
2019-04-06T23:08:42.361Z,97940.66
2019-04-06T23:11:13.791Z,97938.22
2019-04-06T23:13:44.880Z,97937.94
2019-04-06T23:16:15.680Z,97941.25
2019-04-06T23:18:46.568Z,97942.75
2019-04-06T23:21:17.457Z,97944.56
2019-04-06T23:23:48.717Z,97951.72
2019-04-06T23:26:20.142Z,97950.38
2019-04-06T23:28:51.405Z,97948.42
2019-04-06T23:31:22.429Z,97956.14
2019-04-06T23:33:54.118Z,97953.70
2019-04-06T23:36:25.065Z,97957.40
2019-04-06T23:38:56.358Z,97959.68
2019-04-06T23:41:27.692Z,97955.15
2019-04-06T23:43:58.709Z,97950.23
2019-04-06T23:46:30.115Z,97968.04
2019-04-06T23:49:02.574Z,97971.11
2019-04-06T23:51:33.708Z,97972.22
2019-04-06T23:54:04.674Z,97966.45
2019-04-06T23:56:35.514Z,97965.52
2019-04-06T23:59:07.480Z,97965.52
